MMCL/CUL METAR and TAF weather

Enter ICAO airport designator
Station Type Date Time Source
MMCL METAR 2019/06/27 03:42 UTC NOAA

MMCL 270342Z 00000KT 10SM SCT070 29/19 A2992 RMK 8/030 TCU NE DIST HZY


Station Type Date Time Source
MMCL Decoded METAR 2019/06/27 03:42 UTC NOAA

Culiacan, Sin., Mexico (MMCL) 24-49N 107-24W
Jun 26, 2019 - 11:42 PM EDT / 2019.06.27 0342 UTC
Wind: Calm:0
Visibility: 10 mile(s):0
Sky conditions: partly cloudy
Weather: Towering cumulus clouds observed
Temperature: 84 F (29 C)
Dew Point: 66 F (19 C)
Relative Humidity: 54%
Pressure (altimeter): 29.92 in. Hg (1013 hPa)
ob: MMCL 270342Z 00000KT 10SM SCT070 29/19 A2992 RMK 8/030 TCU NE DIST HZY
cycle: 3

Station Type Date Time Source
MMCL TAF 2019/06/27 06:22 UTC NOAA

TAF MMCL 270315Z 2706/2806 22005KT P6SM SCT070
TEMPO 2711/2715 4SM HZ BKN012
FM271800 23015KT P6SM SCT250
FM280500 22006KT P6SM SKC

Example: see airport list